sensor_id;sensor_type;location;lat;lon;timestamp;pressure;altitude;pressure_sealevel;temperature;humidity
68988;BME280;56038;46.080;11.116;2023-07-29T00:03:18;99134.19;;;22.72;80.88
68988;BME280;56038;46.080;11.116;2023-07-29T00:08:20;99128.75;;;22.74;80.96
68988;BME280;56038;46.080;11.116;2023-07-29T00:13:24;99142.38;;;22.61;81.81
68988;BME280;56038;46.080;11.116;2023-07-29T00:18:25;99131.28;;;22.65;81.56
68988;BME280;56038;46.080;11.116;2023-07-29T00:23:29;99119.25;;;22.61;81.57
68988;BME280;56038;46.080;11.116;2023-07-29T00:28:32;99128.91;;;22.53;82.97
68988;BME280;56038;46.080;11.116;2023-07-29T00:33:34;99126.84;;;22.37;83.30
68988;BME280;56038;46.080;11.116;2023-07-29T00:38:36;99104.59;;;22.19;85.04
68988;BME280;56038;46.080;11.116;2023-07-29T00:43:39;99108.53;;;22.15;85.48
68988;BME280;56038;46.080;11.116;2023-07-29T00:48:41;99109.50;;;22.14;85.64
68988;BME280;56038;46.080;11.116;2023-07-29T00:53:43;99118.63;;;22.11;85.92
68988;BME280;56038;46.080;11.116;2023-07-29T00:58:47;99104.44;;;22.01;87.01
68988;BME280;56038;46.080;11.116;2023-07-29T01:03:48;99103.47;;;22.02;87.12
68988;BME280;56038;46.080;11.116;2023-07-29T01:08:55;99109.50;;;21.94;88.52
68988;BME280;56038;46.080;11.116;2023-07-29T01:14:05;99116.50;;;22.05;87.89
68988;BME280;56038;46.080;11.116;2023-07-29T01:19:15;99105.41;;;21.90;89.81
68988;BME280;56038;46.080;11.116;2023-07-29T01:24:23;99113.13;;;21.83;89.32
68988;BME280;56038;46.080;11.116;2023-07-29T01:29:25;99118.56;;;22.01;87.28
68988;BME280;56038;46.080;11.116;2023-07-29T01:34:29;99116.50;;;22.05;88.63
68988;BME280;56038;46.080;11.116;2023-07-29T01:39:36;99121.44;;;22.09;86.92
68988;BME280;56038;46.080;11.116;2023-07-29T01:44:39;99121.25;;;22.21;86.20
68988;BME280;56038;46.080;11.116;2023-07-29T01:49:42;99120.28;;;22.41;85.28
68988;BME280;56038;46.080;11.116;2023-07-29T01:54:46;99117.59;;;22.22;86.27
68988;BME280;56038;46.080;11.116;2023-07-29T01:59:48;99107.84;;;22.13;86.57
68988;BME280;56038;46.080;11.116;2023-07-29T02:04:49;99114.25;;;22.20;86.37
68988;BME280;56038;46.080;11.116;2023-07-29T02:09:54;99123.63;;;22.43;85.40
68988;BME280;56038;46.080;11.116;2023-07-29T02:14:56;99130.19;;;22.58;84.67
68988;BME280;56038;46.080;11.116;2023-07-29T02:19:57;99147.59;;;22.43;85.33
68988;BME280;56038;46.080;11.116;2023-07-29T02:25:01;99146.75;;;22.33;85.77
68988;BME280;56038;46.080;11.116;2023-07-29T02:30:03;99154.03;;;22.21;86.36
68988;BME280;56038;46.080;11.116;2023-07-29T02:35:06;99153.47;;;22.18;86.30
68988;BME280;56038;46.080;11.116;2023-07-29T02:40:11;99142.09;;;21.96;87.67
68988;BME280;56038;46.080;11.116;2023-07-29T02:45:13;99156.50;;;22.03;91.04
68988;BME280;56038;46.080;11.116;2023-07-29T02:50:15;99156.53;;;22.23;86.27
68988;BME280;56038;46.080;11.116;2023-07-29T02:55:18;99154.75;;;22.14;86.77
68988;BME280;56038;46.080;11.116;2023-07-29T03:00:20;99164.31;;;21.76;88.59
68988;BME280;56038;46.080;11.116;2023-07-29T03:05:22;99164.63;;;21.92;87.85
68988;BME280;56038;46.080;11.116;2023-07-29T03:10:25;99167.03;;;21.95;87.94
68988;BME280;56038;46.080;11.116;2023-07-29T03:15:27;99164.13;;;22.18;86.85
68988;BME280;56038;46.080;11.116;2023-07-29T03:20:29;99156.97;;;22.18;86.50
68988;BME280;56038;46.080;11.116;2023-07-29T03:25:32;99164.97;;;22.28;86.36
68988;BME280;56038;46.080;11.116;2023-07-29T03:30:34;99172.22;;;22.35;85.95
68988;BME280;56038;46.080;11.116;2023-07-29T03:35:36;99160.59;;;22.46;85.50
68988;BME280;56038;46.080;11.116;2023-07-29T03:40:40;99159.31;;;22.50;85.31
68988;BME280;56038;46.080;11.116;2023-07-29T03:45:42;99167.34;;;22.31;85.97
68988;BME280;56038;46.080;11.116;2023-07-29T03:50:44;99176.72;;;22.35;85.80
68988;BME280;56038;46.080;11.116;2023-07-29T03:55:47;99162.28;;;22.47;85.15
68988;BME280;56038;46.080;11.116;2023-07-29T04:00:50;99171.94;;;22.48;84.83
68988;BME280;56038;46.080;11.116;2023-07-29T04:05:56;99168.00;;;22.52;84.75
68988;BME280;56038;46.080;11.116;2023-07-29T04:11:01;99171.09;;;22.57;84.76
68988;BME280;56038;46.080;11.116;2023-07-29T04:16:03;99181.50;;;22.41;85.04
68988;BME280;56038;46.080;11.116;2023-07-29T04:21:05;99178.94;;;22.39;85.09
68988;BME280;56038;46.080;11.116;2023-07-29T04:26:08;99178.66;;;22.52;84.62
68988;BME280;56038;46.080;11.116;2023-07-29T04:31:10;99189.44;;;22.60;84.08
68988;BME280;56038;46.080;11.116;2023-07-29T04:36:12;99185.50;;;22.55;84.11
68988;BME280;56038;46.080;11.116;2023-07-29T04:41:15;99195.63;;;22.13;86.32
68988;BME280;56038;46.080;11.116;2023-07-29T04:46:17;99194.34;;;22.17;86.00
68988;BME280;56038;46.080;11.116;2023-07-29T04:51:19;99199.06;;;22.03;87.07
68988;BME280;56038;46.080;11.116;2023-07-29T04:56:22;99211.59;;;22.13;86.59
68988;BME280;56038;46.080;11.116;2023-07-29T05:01:24;99211.13;;;21.98;87.03
68988;BME280;56038;46.080;11.116;2023-07-29T05:06:26;99216.13;;;21.81;87.85
68988;BME280;56038;46.080;11.116;2023-07-29T05:11:30;99209.28;;;21.89;87.57
68988;BME280;56038;46.080;11.116;2023-07-29T05:16:31;99204.16;;;22.16;86.53
68988;BME280;56038;46.080;11.116;2023-07-29T05:21:33;99207.53;;;22.18;86.55
68988;BME280;56038;46.080;11.116;2023-07-29T05:26:37;99209.34;;;22.27;86.23
68988;BME280;56038;46.080;11.116;2023-07-29T05:31:39;99210.47;;;22.34;85.79
68988;BME280;56038;46.080;11.116;2023-07-29T05:36:41;99205.56;;;22.39;85.51
68988;BME280;56038;46.080;11.116;2023-07-29T05:41:44;99200.09;;;22.51;85.14
68988;BME280;56038;46.080;11.116;2023-07-29T05:46:46;99201.88;;;22.69;84.37
68988;BME280;56038;46.080;11.116;2023-07-29T05:51:48;99199.66;;;22.84;84.03
68988;BME280;56038;46.080;11.116;2023-07-29T05:56:51;99201.03;;;22.79;83.97
68988;BME280;56038;46.080;11.116;2023-07-29T06:01:53;99212.56;;;22.50;84.72
68988;BME280;56038;46.080;11.116;2023-07-29T06:06:55;99209.34;;;22.47;84.90
68988;BME280;56038;46.080;11.116;2023-07-29T06:11:59;99211.59;;;22.32;85.74
68988;BME280;56038;46.080;11.116;2023-07-29T06:17:00;99210.47;;;22.44;85.58
68988;BME280;56038;46.080;11.116;2023-07-29T06:22:02;99212.41;;;22.52;84.56
68988;BME280;56038;46.080;11.116;2023-07-29T06:27:07;99217.31;;;22.37;85.46
68988;BME280;56038;46.080;11.116;2023-07-29T06:32:09;99212.97;;;22.36;85.05
68988;BME280;56038;46.080;11.116;2023-07-29T06:37:10;99201.91;;;22.50;84.08
68988;BME280;56038;46.080;11.116;2023-07-29T06:42:14;99210.16;;;22.66;83.62
68988;BME280;56038;46.080;11.116;2023-07-29T06:47:16;99215.06;;;22.81;83.06
68988;BME280;56038;46.080;11.116;2023-07-29T06:52:17;99211.00;;;22.86;82.64
68988;BME280;56038;46.080;11.116;2023-07-29T06:57:21;99218.44;;;22.83;82.38
68988;BME280;56038;46.080;11.116;2023-07-29T07:02:23;99216.31;;;22.86;81.90
68988;BME280;56038;46.080;11.116;2023-07-29T07:07:24;99206.09;;;22.91;81.56
68988;BME280;56038;46.080;11.116;2023-07-29T07:12:28;99202.41;;;23.02;80.98
68988;BME280;56038;46.080;11.116;2023-07-29T07:17:30;99199.56;;;23.23;79.92
68988;BME280;56038;46.080;11.116;2023-07-29T07:22:31;99201.28;;;23.42;79.40
68988;BME280;56038;46.080;11.116;2023-07-29T07:27:35;99189.03;;;23.49;78.64
68988;BME280;56038;46.080;11.116;2023-07-29T07:32:36;99180.88;;;23.50;78.12
68988;BME280;56038;46.080;11.116;2023-07-29T07:37:38;99176.78;;;23.66;77.24
68988;BME280;56038;46.080;11.116;2023-07-29T07:42:41;99167.34;;;23.71;76.79
68988;BME280;56038;46.080;11.116;2023-07-29T07:47:43;99157.84;;;23.86;75.90
68988;BME280;56038;46.080;11.116;2023-07-29T07:52:45;99166.31;;;24.00;75.40
68988;BME280;56038;46.080;11.116;2023-07-29T07:57:49;99161.97;;;24.16;74.72
68988;BME280;56038;46.080;11.116;2023-07-29T08:02:50;99166.50;;;24.34;74.30
68988;BME280;56038;46.080;11.116;2023-07-29T08:07:52;99165.09;;;24.47;73.66
68988;BME280;56038;46.080;11.116;2023-07-29T08:12:56;99162.13;;;24.51;72.96
68988;BME280;56038;46.080;11.116;2023-07-29T08:17:57;99160.88;;;24.63;72.35
68988;BME280;56038;46.080;11.116;2023-07-29T08:22:59;99154.31;;;24.83;72.14
68988;BME280;56038;46.080;11.116;2023-07-29T08:28:02;99148.78;;;25.02;71.14
68988;BME280;56038;46.080;11.116;2023-07-29T08:33:05;99144.13;;;25.04;70.70
68988;BME280;56038;46.080;11.116;2023-07-29T08:38:07;99130.16;;;25.19;70.34
68988;BME280;56038;46.080;11.116;2023-07-29T08:43:11;99120.19;;;25.37;69.49
68988;BME280;56038;46.080;11.116;2023-07-29T08:48:15;99115.22;;;25.50;69.25
68988;BME280;56038;46.080;11.116;2023-07-29T08:53:21;99098.53;;;25.64;68.55
68988;BME280;56038;46.080;11.116;2023-07-29T08:58:25;99102.13;;;25.89;67.56
68988;BME280;56038;46.080;11.116;2023-07-29T09:03:27;99102.47;;;26.11;67.15
68988;BME280;56038;46.080;11.116;2023-07-29T09:08:29;99113.34;;;26.34;66.44
68988;BME280;56038;46.080;11.116;2023-07-29T09:13:32;99112.19;;;26.52;64.89
68988;BME280;56038;46.080;11.116;2023-07-29T09:18:34;99103.44;;;26.83;63.75
68988;BME280;56038;46.080;11.116;2023-07-29T09:23:39;99102.50;;;27.15;61.13
68988;BME280;56038;46.080;11.116;2023-07-29T09:28:51;99089.97;;;27.47;59.14
68988;BME280;56038;46.080;11.116;2023-07-29T09:33:56;99086.66;;;27.67;60.54
68988;BME280;56038;46.080;11.116;2023-07-29T09:38:59;99073.88;;;27.92;60.01
68988;BME280;56038;46.080;11.116;2023-07-29T09:44:04;99062.31;;;28.15;58.65
68988;BME280;56038;46.080;11.116;2023-07-29T09:49:07;99059.25;;;28.55;57.60
68988;BME280;56038;46.080;11.116;2023-07-29T09:54:10;99049.63;;;29.20;57.16
68988;BME280;56038;46.080;11.116;2023-07-29T09:59:18;99051.03;;;29.73;54.68
68988;BME280;56038;46.080;11.116;2023-07-29T10:04:21;99044.50;;;30.04;54.30
68988;BME280;56038;46.080;11.116;2023-07-29T10:09:23;99043.22;;;30.21;54.05
68988;BME280;56038;46.080;11.116;2023-07-29T10:14:27;99043.38;;;30.76;51.79
68988;BME280;56038;46.080;11.116;2023-07-29T10:19:30;99032.44;;;31.25;51.17
68988;BME280;56038;46.080;11.116;2023-07-29T10:24:33;99036.09;;;30.69;51.79
68988;BME280;56038;46.080;11.116;2023-07-29T10:29:38;99020.28;;;31.01;50.16
68988;BME280;56038;46.080;11.116;2023-07-29T10:34:40;99027.03;;;30.84;49.97
68988;BME280;56038;46.080;11.116;2023-07-29T10:39:53;99014.00;;;30.53;45.79
68988;BME280;56038;46.080;11.116;2023-07-29T10:44:56;98998.38;;;30.76;49.03
68988;BME280;56038;46.080;11.116;2023-07-29T10:49:59;98989.72;;;31.42;47.71
68988;BME280;56038;46.080;11.116;2023-07-29T10:55:01;98985.59;;;31.59;47.68
68988;BME280;56038;46.080;11.116;2023-07-29T11:00:06;98974.13;;;31.50;46.92
68988;BME280;56038;46.080;11.116;2023-07-29T11:05:17;98981.03;;;31.99;45.27
68988;BME280;56038;46.080;11.116;2023-07-29T11:10:21;98973.94;;;31.65;45.43
68988;BME280;56038;46.080;11.116;2023-07-29T11:15:25;98971.03;;;32.39;45.38
68988;BME280;56038;46.080;11.116;2023-07-29T11:20:28;98951.75;;;31.83;45.97
68988;BME280;56038;46.080;11.116;2023-07-29T11:25:31;98946.31;;;31.70;45.81
68988;BME280;56038;46.080;11.116;2023-07-29T11:30:39;98939.53;;;32.71;43.37
68988;BME280;56038;46.080;11.116;2023-07-29T11:35:41;98934.69;;;32.80;44.93
68988;BME280;56038;46.080;11.116;2023-07-29T11:40:43;98926.44;;;32.68;45.11
68988;BME280;56038;46.080;11.116;2023-07-29T11:45:46;98907.59;;;32.42;44.94
68988;BME280;56038;46.080;11.116;2023-07-29T11:50:48;98904.34;;;31.87;46.23
68988;BME280;56038;46.080;11.116;2023-07-29T11:55:51;98890.47;;;31.77;45.81
68988;BME280;56038;46.080;11.116;2023-07-29T12:00:55;98887.75;;;31.83;44.93
68988;BME280;56038;46.080;11.116;2023-07-29T12:05:57;98892.13;;;31.58;46.91
68988;BME280;56038;46.080;11.116;2023-07-29T12:10:59;98883.78;;;31.66;46.67
68988;BME280;56038;46.080;11.116;2023-07-29T12:16:03;98874.06;;;31.78;46.14
68988;BME280;56038;46.080;11.116;2023-07-29T12:21:05;98867.28;;;32.85;44.87
68988;BME280;56038;46.080;11.116;2023-07-29T12:26:07;98876.84;;;33.51;43.59
68988;BME280;56038;46.080;11.116;2023-07-29T12:31:10;98854.19;;;32.75;45.51
68988;BME280;56038;46.080;11.116;2023-07-29T12:36:12;98851.19;;;32.52;46.79
68988;BME280;56038;46.080;11.116;2023-07-29T12:41:15;98841.81;;;33.24;45.30
68988;BME280;56038;46.080;11.116;2023-07-29T12:46:18;98828.19;;;33.81;44.28
68988;BME280;56038;46.080;11.116;2023-07-29T12:51:19;98816.25;;;34.43;42.83
68988;BME280;56038;46.080;11.116;2023-07-29T12:56:21;98802.31;;;34.70;43.29
68988;BME280;56038;46.080;11.116;2023-07-29T13:01:25;98801.63;;;34.74;42.60
68988;BME280;56038;46.080;11.116;2023-07-29T13:06:27;98786.84;;;32.99;45.77
68988;BME280;56038;46.080;11.116;2023-07-29T13:11:29;98781.41;;;31.51;49.82
68988;BME280;56038;46.080;11.116;2023-07-29T13:16:34;98782.44;;;30.64;53.02
68988;BME280;56038;46.080;11.116;2023-07-29T13:21:36;98782.56;;;30.50;53.45
68988;BME280;56038;46.080;11.116;2023-07-29T13:26:38;98777.69;;;30.19;55.03
68988;BME280;56038;46.080;11.116;2023-07-29T13:31:41;98779.63;;;29.97;56.75
68988;BME280;56038;46.080;11.116;2023-07-29T13:36:43;98777.19;;;30.02;56.25
68988;BME280;56038;46.080;11.116;2023-07-29T13:41:45;98786.78;;;30.65;54.24
68988;BME280;56038;46.080;11.116;2023-07-29T13:46:48;98788.41;;;30.05;56.53
68988;BME280;56038;46.080;11.116;2023-07-29T13:51:50;98784.28;;;29.68;57.85
68988;BME280;56038;46.080;11.116;2023-07-29T13:56:52;98791.78;;;29.23;58.88
68988;BME280;56038;46.080;11.116;2023-07-29T14:01:56;98783.50;;;29.46;59.35
68988;BME280;56038;46.080;11.116;2023-07-29T14:06:57;98786.66;;;29.29;59.50
68988;BME280;56038;46.080;11.116;2023-07-29T14:11:59;98791.56;;;29.81;57.80
68988;BME280;56038;46.080;11.116;2023-07-29T14:17:03;98796.38;;;29.51;58.93
68988;BME280;56038;46.080;11.116;2023-07-29T14:22:05;98789.44;;;29.14;59.53
68988;BME280;56038;46.080;11.116;2023-07-29T14:27:07;98782.66;;;28.97;59.69
68988;BME280;56038;46.080;11.116;2023-07-29T14:32:10;98780.06;;;28.46;61.45
68988;BME280;56038;46.080;11.116;2023-07-29T14:37:12;98778.91;;;28.55;61.37
68988;BME280;56038;46.080;11.116;2023-07-29T14:42:14;98777.16;;;29.33;59.36
68988;BME280;56038;46.080;11.116;2023-07-29T14:47:17;98765.63;;;29.39;58.85
68988;BME280;56038;46.080;11.116;2023-07-29T14:52:19;98760.28;;;29.45;58.86
68988;BME280;56038;46.080;11.116;2023-07-29T14:57:21;98760.63;;;29.36;59.01
68988;BME280;56038;46.080;11.116;2023-07-29T15:02:24;98771.81;;;29.11;60.09
68988;BME280;56038;46.080;11.116;2023-07-29T15:07:26;98767.88;;;29.07;59.87
68988;BME280;56038;46.080;11.116;2023-07-29T15:12:28;98751.66;;;28.79;60.23
68988;BME280;56038;46.080;11.116;2023-07-29T15:17:31;98751.72;;;28.64;61.00
68988;BME280;56038;46.080;11.116;2023-07-29T15:22:33;98754.94;;;28.53;61.17
68988;BME280;56038;46.080;11.116;2023-07-29T15:27:35;98758.00;;;28.50;61.07
68988;BME280;56038;46.080;11.116;2023-07-29T15:32:38;98753.00;;;28.26;61.57
68988;BME280;56038;46.080;11.116;2023-07-29T15:37:42;98743.56;;;28.00;63.10
68988;BME280;56038;46.080;11.116;2023-07-29T15:42:46;98741.88;;;27.78;65.22
68988;BME280;56038;46.080;11.116;2023-07-29T15:47:49;98730.84;;;27.73;64.55
68988;BME280;56038;46.080;11.116;2023-07-29T15:52:51;98728.97;;;27.88;64.08
68988;BME280;56038;46.080;11.116;2023-07-29T15:57:54;98717.78;;;27.85;64.22
68988;BME280;56038;46.080;11.116;2023-07-29T16:02:57;98735.28;;;27.66;65.83
68988;BME280;56038;46.080;11.116;2023-07-29T16:07:59;98741.38;;;27.89;64.22
68988;BME280;56038;46.080;11.116;2023-07-29T16:13:01;98737.38;;;28.00;64.14
68988;BME280;56038;46.080;11.116;2023-07-29T16:18:07;98735.59;;;28.07;64.49
68988;BME280;56038;46.080;11.116;2023-07-29T16:23:09;98739.63;;;28.54;63.67
68988;BME280;56038;46.080;11.116;2023-07-29T16:28:11;98739.75;;;29.10;60.76
68988;BME280;56038;46.080;11.116;2023-07-29T16:33:14;98714.94;;;29.42;59.76
68988;BME280;56038;46.080;11.116;2023-07-29T16:38:16;98715.38;;;29.46;59.73
68988;BME280;56038;46.080;11.116;2023-07-29T16:43:18;98723.75;;;29.58;59.79
68988;BME280;56038;46.080;11.116;2023-07-29T16:48:21;98726.78;;;29.48;60.52
68988;BME280;56038;46.080;11.116;2023-07-29T16:53:25;98736.13;;;29.24;60.55
68988;BME280;56038;46.080;11.116;2023-07-29T16:58:27;98736.72;;;28.91;61.42
68988;BME280;56038;46.080;11.116;2023-07-29T17:03:30;98739.75;;;28.67;62.47
68988;BME280;56038;46.080;11.116;2023-07-29T17:08:32;98731.84;;;28.59;62.86
68988;BME280;56038;46.080;11.116;2023-07-29T17:13:33;98735.69;;;28.50;63.12
68988;BME280;56038;46.080;11.116;2023-07-29T17:18:37;98745.19;;;28.31;63.67
68988;BME280;56038;46.080;11.116;2023-07-29T17:23:39;98756.78;;;28.17;64.34
68988;BME280;56038;46.080;11.116;2023-07-29T17:28:41;98758.66;;;28.01;64.76
68988;BME280;56038;46.080;11.116;2023-07-29T17:33:45;98776.75;;;27.78;65.90
68988;BME280;56038;46.080;11.116;2023-07-29T17:38:46;98787.13;;;27.66;65.60
68988;BME280;56038;46.080;11.116;2023-07-29T17:43:48;98784.81;;;27.63;65.85
68988;BME280;56038;46.080;11.116;2023-07-29T17:48:52;98783.63;;;27.58;66.00
68988;BME280;56038;46.080;11.116;2023-07-29T17:53:53;98799.84;;;27.50;66.25
68988;BME280;56038;46.080;11.116;2023-07-29T17:58:55;98799.53;;;27.44;66.07
68988;BME280;56038;46.080;11.116;2023-07-29T18:03:58;98804.53;;;27.33;67.02
68988;BME280;56038;46.080;11.116;2023-07-29T18:09:00;98802.03;;;27.31;67.18
68988;BME280;56038;46.080;11.116;2023-07-29T18:14:02;98808.88;;;27.34;66.79
68988;BME280;56038;46.080;11.116;2023-07-29T18:19:05;98806.44;;;27.24;67.34
68988;BME280;56038;46.080;11.116;2023-07-29T18:24:07;98816.69;;;26.98;69.11
68988;BME280;56038;46.080;11.116;2023-07-29T18:29:09;98814.75;;;26.69;70.70
68988;BME280;56038;46.080;11.116;2023-07-29T18:34:12;98809.50;;;26.52;72.62
68988;BME280;56038;46.080;11.116;2023-07-29T18:39:14;98817.69;;;26.20;74.78
68988;BME280;56038;46.080;11.116;2023-07-29T18:44:16;98832.09;;;26.03;74.55
68988;BME280;56038;46.080;11.116;2023-07-29T18:49:20;98830.72;;;25.76;75.61
68988;BME280;56038;46.080;11.116;2023-07-29T18:54:23;98837.06;;;25.58;75.61
68988;BME280;56038;46.080;11.116;2023-07-29T18:59:25;98837.09;;;25.34;77.69
68988;BME280;56038;46.080;11.116;2023-07-29T19:04:29;98854.31;;;25.15;77.19
68988;BME280;56038;46.080;11.116;2023-07-29T19:09:30;98854.81;;;25.02;77.13
68988;BME280;56038;46.080;11.116;2023-07-29T19:14:32;98860.44;;;24.83;77.48
68988;BME280;56038;46.080;11.116;2023-07-29T19:19:36;98874.94;;;24.72;78.99
68988;BME280;56038;46.080;11.116;2023-07-29T19:24:38;98883.06;;;24.55;79.25
68988;BME280;56038;46.080;11.116;2023-07-29T19:29:41;98881.00;;;24.40;79.59
68988;BME280;56038;46.080;11.116;2023-07-29T19:34:46;98888.00;;;24.33;79.68
68988;BME280;56038;46.080;11.116;2023-07-29T19:39:52;98894.59;;;24.21;79.95
68988;BME280;56038;46.080;11.116;2023-07-29T19:44:54;98896.19;;;24.06;80.26
68988;BME280;56038;46.080;11.116;2023-07-29T19:49:57;98903.63;;;23.94;81.33
68988;BME280;56038;46.080;11.116;2023-07-29T19:54:59;98910.38;;;23.80;82.76
68988;BME280;56038;46.080;11.116;2023-07-29T20:00:01;98914.97;;;23.70;82.49
68988;BME280;56038;46.080;11.116;2023-07-29T20:05:06;98928.56;;;23.59;82.95
68988;BME280;56038;46.080;11.116;2023-07-29T20:10:08;98930.59;;;23.47;84.03
68988;BME280;56038;46.080;11.116;2023-07-29T20:15:10;98934.72;;;23.42;83.46
68988;BME280;56038;46.080;11.116;2023-07-29T20:20:13;98942.88;;;23.40;84.13
68988;BME280;56038;46.080;11.116;2023-07-29T20:25:16;98946.84;;;23.36;83.89
68988;BME280;56038;46.080;11.116;2023-07-29T20:30:17;98957.41;;;23.28;83.82
68988;BME280;56038;46.080;11.116;2023-07-29T20:35:21;98956.56;;;23.27;85.07
68988;BME280;56038;46.080;11.116;2023-07-29T20:40:22;98958.56;;;23.25;84.14
68988;BME280;56038;46.080;11.116;2023-07-29T20:45:24;98944.16;;;23.18;85.85
68988;BME280;56038;46.080;11.116;2023-07-29T20:50:27;98958.63;;;23.16;85.74
68988;BME280;56038;46.080;11.116;2023-07-29T20:55:29;98950.25;;;23.11;85.36
68988;BME280;56038;46.080;11.116;2023-07-29T21:00:31;98945.91;;;23.10;85.38
68988;BME280;56038;46.080;11.116;2023-07-29T21:05:36;98946.22;;;23.07;85.56
68988;BME280;56038;46.080;11.116;2023-07-29T21:10:37;98940.75;;;23.08;85.57
68988;BME280;56038;46.080;11.116;2023-07-29T21:15:39;98936.84;;;23.02;86.25
68988;BME280;56038;46.080;11.116;2023-07-29T21:20:43;98943.63;;;22.97;86.69
68988;BME280;56038;46.080;11.116;2023-07-29T21:25:46;98951.91;;;22.94;87.08
68988;BME280;56038;46.080;11.116;2023-07-29T21:30:48;98948.94;;;22.97;87.49
68988;BME280;56038;46.080;11.116;2023-07-29T21:35:52;98947.13;;;22.97;88.14
68988;BME280;56038;46.080;11.116;2023-07-29T21:40:54;98950.25;;;22.93;88.07
68988;BME280;56038;46.080;11.116;2023-07-29T21:45:56;98959.94;;;22.84;89.61
68988;BME280;56038;46.080;11.116;2023-07-29T21:50:59;98966.13;;;22.85;91.29
68988;BME280;56038;46.080;11.116;2023-07-29T21:56:01;98961.66;;;22.76;91.32
68988;BME280;56038;46.080;11.116;2023-07-29T22:01:03;98958.84;;;22.77;91.46
68988;BME280;56038;46.080;11.116;2023-07-29T22:06:06;98963.72;;;22.82;91.55
68988;BME280;56038;46.080;11.116;2023-07-29T22:11:08;98957.56;;;22.81;91.60
68988;BME280;56038;46.080;11.116;2023-07-29T22:16:11;98952.13;;;22.83;91.85
68988;BME280;56038;46.080;11.116;2023-07-29T22:21:15;98948.72;;;22.81;92.51
68988;BME280;56038;46.080;11.116;2023-07-29T22:26:17;98938.22;;;22.79;92.26
68988;BME280;56038;46.080;11.116;2023-07-29T22:31:19;98933.63;;;22.71;93.20
68988;BME280;56038;46.080;11.116;2023-07-29T22:36:22;98940.88;;;22.61;94.41
68988;BME280;56038;46.080;11.116;2023-07-29T22:41:24;98933.19;;;22.58;95.67
68988;BME280;56038;46.080;11.116;2023-07-29T22:46:26;98946.75;;;22.55;94.55
68988;BME280;56038;46.080;11.116;2023-07-29T22:51:32;98937.09;;;22.54;96.59
68988;BME280;56038;46.080;11.116;2023-07-29T22:56:34;98943.03;;;22.48;95.53
68988;BME280;56038;46.080;11.116;2023-07-29T23:01:36;98931.31;;;22.41;98.10
68988;BME280;56038;46.080;11.116;2023-07-29T23:06:40;98927.94;;;22.39;97.02
68988;BME280;56038;46.080;11.116;2023-07-29T23:11:42;98929.06;;;22.36;98.99
68988;BME280;56038;46.080;11.116;2023-07-29T23:16:43;98930.88;;;22.36;98.33
68988;BME280;56038;46.080;11.116;2023-07-29T23:21:47;98946.31;;;22.32;99.22
68988;BME280;56038;46.080;11.116;2023-07-29T23:26:48;98962.72;;;22.28;100.00
68988;BME280;56038;46.080;11.116;2023-07-29T23:31:51;98990.47;;;22.25;100.00
68988;BME280;56038;46.080;11.116;2023-07-29T23:36:56;99009.66;;;22.19;100.00
68988;BME280;56038;46.080;11.116;2023-07-29T23:41:58;99028.81;;;22.23;100.00
68988;BME280;56038;46.080;11.116;2023-07-29T23:47:00;99049.84;;;22.16;100.00
68988;BME280;56038;46.080;11.116;2023-07-29T23:52:05;99034.72;;;22.07;100.00
68988;BME280;56038;46.080;11.116;2023-07-29T23:57:07;99023.09;;;22.08;100.00
